sensor_id;sensor_type;location;lat;lon;timestamp;P1;durP1;ratioP1;P2;durP2;ratioP2
58647;SDS011;45992;45.920;20.074;2023-01-25T00:00:24;33.88;;;15.77;;
58647;SDS011;45992;45.920;20.074;2023-01-25T00:02:51;43.63;;;18.85;;
58647;SDS011;45992;45.920;20.074;2023-01-25T00:05:17;30.30;;;15.82;;
58647;SDS011;45992;45.920;20.074;2023-01-25T00:07:43;23.95;;;12.63;;
58647;SDS011;45992;45.920;20.074;2023-01-25T00:10:09;30.47;;;12.90;;
58647;SDS011;45992;45.920;20.074;2023-01-25T00:12:36;32.60;;;16.45;;
58647;SDS011;45992;45.920;20.074;2023-01-25T00:15:02;35.08;;;17.45;;
58647;SDS011;45992;45.920;20.074;2023-01-25T00:17:28;26.27;;;13.32;;
58647;SDS011;45992;45.920;20.074;2023-01-25T00:19:54;26.58;;;13.75;;
58647;SDS011;45992;45.920;20.074;2023-01-25T00:22:20;27.42;;;14.93;;
58647;SDS011;45992;45.920;20.074;2023-01-25T00:24:46;23.95;;;13.50;;
58647;SDS011;45992;45.920;20.074;2023-01-25T00:27:13;22.90;;;12.05;;
58647;SDS011;45992;45.920;20.074;2023-01-25T00:29:39;26.95;;;14.25;;
58647;SDS011;45992;45.920;20.074;2023-01-25T00:37:01;26.35;;;14.45;;
58647;SDS011;45992;45.920;20.074;2023-01-25T00:39:28;24.83;;;13.88;;
58647;SDS011;45992;45.920;20.074;2023-01-25T00:41:54;26.02;;;15.20;;
58647;SDS011;45992;45.920;20.074;2023-01-25T00:44:20;25.27;;;13.85;;
58647;SDS011;45992;45.920;20.074;2023-01-25T00:46:47;25.15;;;12.68;;
58647;SDS011;45992;45.920;20.074;2023-01-25T00:49:20;23.60;;;13.05;;
58647;SDS011;45992;45.920;20.074;2023-01-25T00:51:47;23.60;;;12.82;;
58647;SDS011;45992;45.920;20.074;2023-01-25T00:54:13;23.73;;;13.52;;
58647;SDS011;45992;45.920;20.074;2023-01-25T00:56:39;29.13;;;15.40;;
58647;SDS011;45992;45.920;20.074;2023-01-25T00:59:05;25.38;;;15.38;;
58647;SDS011;45992;45.920;20.074;2023-01-25T01:01:33;30.42;;;15.25;;
58647;SDS011;45992;45.920;20.074;2023-01-25T01:03:59;26.65;;;14.57;;
58647;SDS011;45992;45.920;20.074;2023-01-25T01:06:25;28.02;;;15.15;;
58647;SDS011;45992;45.920;20.074;2023-01-25T01:08:51;23.75;;;12.35;;
58647;SDS011;45992;45.920;20.074;2023-01-25T01:11:18;24.75;;;13.70;;
58647;SDS011;45992;45.920;20.074;2023-01-25T01:13:44;37.00;;;15.95;;
58647;SDS011;45992;45.920;20.074;2023-01-25T01:16:11;25.02;;;13.80;;
58647;SDS011;45992;45.920;20.074;2023-01-25T01:18:38;25.65;;;15.25;;
58647;SDS011;45992;45.920;20.074;2023-01-25T01:21:05;24.23;;;12.45;;
58647;SDS011;45992;45.920;20.074;2023-01-25T01:23:32;23.63;;;12.70;;
58647;SDS011;45992;45.920;20.074;2023-01-25T01:25:59;28.80;;;13.70;;
58647;SDS011;45992;45.920;20.074;2023-01-25T01:28:26;23.48;;;12.20;;
58647;SDS011;45992;45.920;20.074;2023-01-25T01:30:53;25.92;;;13.43;;
58647;SDS011;45992;45.920;20.074;2023-01-25T01:33:19;24.13;;;12.40;;
58647;SDS011;45992;45.920;20.074;2023-01-25T01:35:45;22.73;;;13.30;;
58647;SDS011;45992;45.920;20.074;2023-01-25T01:38:12;28.13;;;14.10;;
58647;SDS011;45992;45.920;20.074;2023-01-25T01:40:42;24.13;;;13.10;;
58647;SDS011;45992;45.920;20.074;2023-01-25T01:43:15;32.35;;;17.83;;
58647;SDS011;45992;45.920;20.074;2023-01-25T01:45:48;28.25;;;13.57;;
58647;SDS011;45992;45.920;20.074;2023-01-25T01:48:15;26.25;;;15.60;;
58647;SDS011;45992;45.920;20.074;2023-01-25T01:50:42;24.83;;;14.18;;
58647;SDS011;45992;45.920;20.074;2023-01-25T01:53:08;23.33;;;14.27;;
58647;SDS011;45992;45.920;20.074;2023-01-25T01:55:35;22.60;;;13.95;;
58647;SDS011;45992;45.920;20.074;2023-01-25T01:58:01;22.10;;;12.00;;
58647;SDS011;45992;45.920;20.074;2023-01-25T02:00:34;25.92;;;14.57;;
58647;SDS011;45992;45.920;20.074;2023-01-25T02:03:02;22.65;;;11.93;;
58647;SDS011;45992;45.920;20.074;2023-01-25T02:07:55;27.90;;;14.07;;
58647;SDS011;45992;45.920;20.074;2023-01-25T02:10:22;25.77;;;14.32;;
58647;SDS011;45992;45.920;20.074;2023-01-25T02:12:49;20.58;;;12.18;;
58647;SDS011;45992;45.920;20.074;2023-01-25T02:17:42;20.88;;;11.85;;
58647;SDS011;45992;45.920;20.074;2023-01-25T02:25:22;25.95;;;14.68;;
58647;SDS011;45992;45.920;20.074;2023-01-25T02:27:50;32.08;;;19.10;;
58647;SDS011;45992;45.920;20.074;2023-01-25T02:30:17;26.38;;;14.80;;
58647;SDS011;45992;45.920;20.074;2023-01-25T02:32:43;24.52;;;12.80;;
58647;SDS011;45992;45.920;20.074;2023-01-25T02:35:20;23.63;;;14.57;;
58647;SDS011;45992;45.920;20.074;2023-01-25T02:37:46;26.57;;;14.80;;
58647;SDS011;45992;45.920;20.074;2023-01-25T02:40:13;27.52;;;14.80;;
58647;SDS011;45992;45.920;20.074;2023-01-25T02:42:42;22.90;;;12.50;;
58647;SDS011;45992;45.920;20.074;2023-01-25T02:45:10;25.70;;;13.57;;
58647;SDS011;45992;45.920;20.074;2023-01-25T02:47:38;25.00;;;14.65;;
58647;SDS011;45992;45.920;20.074;2023-01-25T02:50:04;18.40;;;10.57;;
58647;SDS011;45992;45.920;20.074;2023-01-25T02:52:31;27.27;;;13.23;;
58647;SDS011;45992;45.920;20.074;2023-01-25T02:54:57;18.83;;;11.60;;
58647;SDS011;45992;45.920;20.074;2023-01-25T02:57:23;21.00;;;11.87;;
58647;SDS011;45992;45.920;20.074;2023-01-25T02:59:49;19.58;;;12.20;;
58647;SDS011;45992;45.920;20.074;2023-01-25T03:02:15;21.83;;;12.60;;
58647;SDS011;45992;45.920;20.074;2023-01-25T03:04:42;24.63;;;14.57;;
58647;SDS011;45992;45.920;20.074;2023-01-25T03:07:08;35.42;;;23.25;;
58647;SDS011;45992;45.920;20.074;2023-01-25T03:09:34;43.65;;;29.33;;
58647;SDS011;45992;45.920;20.074;2023-01-25T03:12:00;25.75;;;14.98;;
58647;SDS011;45992;45.920;20.074;2023-01-25T03:14:27;24.08;;;14.23;;
58647;SDS011;45992;45.920;20.074;2023-01-25T03:16:53;24.80;;;14.53;;
58647;SDS011;45992;45.920;20.074;2023-01-25T03:19:19;25.55;;;14.93;;
58647;SDS011;45992;45.920;20.074;2023-01-25T03:21:45;32.57;;;19.63;;
58647;SDS011;45992;45.920;20.074;2023-01-25T03:24:11;24.65;;;15.68;;
58647;SDS011;45992;45.920;20.074;2023-01-25T03:26:38;19.48;;;12.50;;
58647;SDS011;45992;45.920;20.074;2023-01-25T03:29:22;24.17;;;14.30;;
58647;SDS011;45992;45.920;20.074;2023-01-25T03:31:48;20.67;;;14.30;;
58647;SDS011;45992;45.920;20.074;2023-01-25T03:34:15;22.77;;;12.55;;
58647;SDS011;45992;45.920;20.074;2023-01-25T03:36:41;20.00;;;11.73;;
58647;SDS011;45992;45.920;20.074;2023-01-25T03:39:07;19.50;;;11.07;;
58647;SDS011;45992;45.920;20.074;2023-01-25T03:41:34;25.55;;;13.23;;
58647;SDS011;45992;45.920;20.074;2023-01-25T03:44:00;35.78;;;21.92;;
58647;SDS011;45992;45.920;20.074;2023-01-25T03:46:26;30.13;;;19.52;;
58647;SDS011;45992;45.920;20.074;2023-01-25T03:48:52;36.70;;;25.92;;
58647;SDS011;45992;45.920;20.074;2023-01-25T03:51:18;29.77;;;18.60;;
58647;SDS011;45992;45.920;20.074;2023-01-25T03:53:44;24.27;;;15.43;;
58647;SDS011;45992;45.920;20.074;2023-01-25T03:56:11;26.17;;;13.35;;
58647;SDS011;45992;45.920;20.074;2023-01-25T03:58:44;22.25;;;12.40;;
58647;SDS011;45992;45.920;20.074;2023-01-25T04:01:10;22.55;;;12.98;;
58647;SDS011;45992;45.920;20.074;2023-01-25T04:03:36;18.80;;;10.67;;
58647;SDS011;45992;45.920;20.074;2023-01-25T04:06:02;20.88;;;11.50;;
58647;SDS011;45992;45.920;20.074;2023-01-25T04:08:29;22.90;;;12.23;;
58647;SDS011;45992;45.920;20.074;2023-01-25T04:10:58;24.05;;;13.00;;
58647;SDS011;45992;45.920;20.074;2023-01-25T04:13:26;18.13;;;10.93;;
58647;SDS011;45992;45.920;20.074;2023-01-25T04:15:52;21.25;;;13.35;;
58647;SDS011;45992;45.920;20.074;2023-01-25T04:18:19;23.00;;;13.82;;
58647;SDS011;45992;45.920;20.074;2023-01-25T04:20:50;24.60;;;14.48;;
58647;SDS011;45992;45.920;20.074;2023-01-25T04:23:17;23.98;;;12.85;;
58647;SDS011;45992;45.920;20.074;2023-01-25T04:25:51;21.83;;;11.52;;
58647;SDS011;45992;45.920;20.074;2023-01-25T04:28:17;20.85;;;11.23;;
58647;SDS011;45992;45.920;20.074;2023-01-25T04:30:43;19.65;;;11.45;;
58647;SDS011;45992;45.920;20.074;2023-01-25T04:33:09;22.85;;;13.68;;
58647;SDS011;45992;45.920;20.074;2023-01-25T04:35:36;21.25;;;12.60;;
58647;SDS011;45992;45.920;20.074;2023-01-25T04:38:02;30.67;;;16.75;;
58647;SDS011;45992;45.920;20.074;2023-01-25T04:40:28;30.57;;;17.23;;
58647;SDS011;45992;45.920;20.074;2023-01-25T04:42:55;28.45;;;16.23;;
58647;SDS011;45992;45.920;20.074;2023-01-25T04:45:25;28.63;;;17.15;;
58647;SDS011;45992;45.920;20.074;2023-01-25T04:47:55;44.97;;;28.50;;
58647;SDS011;45992;45.920;20.074;2023-01-25T04:50:21;47.58;;;27.60;;
58647;SDS011;45992;45.920;20.074;2023-01-25T04:52:47;41.30;;;24.40;;
58647;SDS011;45992;45.920;20.074;2023-01-25T04:55:13;44.05;;;23.15;;
58647;SDS011;45992;45.920;20.074;2023-01-25T04:57:40;39.85;;;22.00;;
58647;SDS011;45992;45.920;20.074;2023-01-25T05:00:06;35.70;;;20.65;;
58647;SDS011;45992;45.920;20.074;2023-01-25T05:02:33;44.28;;;21.45;;
58647;SDS011;45992;45.920;20.074;2023-01-25T05:04:59;32.15;;;18.02;;
58647;SDS011;45992;45.920;20.074;2023-01-25T05:07:25;30.60;;;18.02;;
58647;SDS011;45992;45.920;20.074;2023-01-25T05:09:51;34.35;;;18.15;;
58647;SDS011;45992;45.920;20.074;2023-01-25T05:12:17;26.97;;;15.30;;
58647;SDS011;45992;45.920;20.074;2023-01-25T05:14:44;28.95;;;16.73;;
58647;SDS011;45992;45.920;20.074;2023-01-25T05:17:11;41.35;;;23.35;;
58647;SDS011;45992;45.920;20.074;2023-01-25T05:19:37;41.47;;;22.65;;
58647;SDS011;45992;45.920;20.074;2023-01-25T05:22:03;106.78;;;45.45;;
58647;SDS011;45992;45.920;20.074;2023-01-25T05:24:32;62.22;;;30.25;;
58647;SDS011;45992;45.920;20.074;2023-01-25T05:29:45;29.50;;;16.52;;
58647;SDS011;45992;45.920;20.074;2023-01-25T05:32:15;24.98;;;13.10;;
58647;SDS011;45992;45.920;20.074;2023-01-25T05:34:42;26.33;;;14.27;;
58647;SDS011;45992;45.920;20.074;2023-01-25T05:37:09;20.65;;;12.73;;
58647;SDS011;45992;45.920;20.074;2023-01-25T05:39:36;21.98;;;13.77;;
58647;SDS011;45992;45.920;20.074;2023-01-25T05:42:02;24.77;;;13.38;;
58647;SDS011;45992;45.920;20.074;2023-01-25T05:44:28;23.83;;;13.93;;
58647;SDS011;45992;45.920;20.074;2023-01-25T05:46:54;22.67;;;15.02;;
58647;SDS011;45992;45.920;20.074;2023-01-25T05:49:21;24.60;;;15.32;;
58647;SDS011;45992;45.920;20.074;2023-01-25T05:51:47;25.13;;;15.23;;
58647;SDS011;45992;45.920;20.074;2023-01-25T05:54:16;23.13;;;14.65;;
58647;SDS011;45992;45.920;20.074;2023-01-25T05:56:43;23.17;;;14.05;;
58647;SDS011;45992;45.920;20.074;2023-01-25T05:59:10;24.30;;;16.13;;
58647;SDS011;45992;45.920;20.074;2023-01-25T06:04:03;19.55;;;12.90;;
58647;SDS011;45992;45.920;20.074;2023-01-25T06:06:29;20.88;;;13.35;;
58647;SDS011;45992;45.920;20.074;2023-01-25T06:08:55;25.35;;;12.43;;
58647;SDS011;45992;45.920;20.074;2023-01-25T06:11:22;18.10;;;11.52;;
58647;SDS011;45992;45.920;20.074;2023-01-25T06:13:48;20.52;;;11.88;;
58647;SDS011;45992;45.920;20.074;2023-01-25T06:16:15;20.73;;;12.32;;
58647;SDS011;45992;45.920;20.074;2023-01-25T06:18:42;60.47;;;34.85;;
58647;SDS011;45992;45.920;20.074;2023-01-25T06:21:08;38.15;;;22.88;;
58647;SDS011;45992;45.920;20.074;2023-01-25T06:23:34;34.75;;;17.42;;
58647;SDS011;45992;45.920;20.074;2023-01-25T06:26:02;36.25;;;20.30;;
58647;SDS011;45992;45.920;20.074;2023-01-25T06:28:30;66.97;;;33.90;;
58647;SDS011;45992;45.920;20.074;2023-01-25T06:33:22;39.95;;;21.23;;
58647;SDS011;45992;45.920;20.074;2023-01-25T06:35:48;39.90;;;20.85;;
58647;SDS011;45992;45.920;20.074;2023-01-25T06:38:16;50.78;;;22.52;;
58647;SDS011;45992;45.920;20.074;2023-01-25T06:40:42;27.75;;;15.00;;
58647;SDS011;45992;45.920;20.074;2023-01-25T06:43:09;45.75;;;22.30;;
58647;SDS011;45992;45.920;20.074;2023-01-25T06:45:35;40.63;;;19.88;;
58647;SDS011;45992;45.920;20.074;2023-01-25T06:48:01;75.05;;;33.25;;
58647;SDS011;45992;45.920;20.074;2023-01-25T06:50:28;38.50;;;15.98;;
58647;SDS011;45992;45.920;20.074;2023-01-25T06:52:54;31.83;;;18.05;;
58647;SDS011;45992;45.920;20.074;2023-01-25T06:55:20;34.97;;;17.30;;
58647;SDS011;45992;45.920;20.074;2023-01-25T06:57:47;39.58;;;20.90;;
58647;SDS011;45992;45.920;20.074;2023-01-25T07:00:17;31.83;;;19.10;;
58647;SDS011;45992;45.920;20.074;2023-01-25T07:02:43;34.63;;;20.42;;
58647;SDS011;45992;45.920;20.074;2023-01-25T07:05:09;38.33;;;21.40;;
58647;SDS011;45992;45.920;20.074;2023-01-25T07:07:35;46.17;;;27.48;;
58647;SDS011;45992;45.920;20.074;2023-01-25T07:10:02;46.08;;;28.80;;
58647;SDS011;45992;45.920;20.074;2023-01-25T07:12:28;62.58;;;33.72;;
58647;SDS011;45992;45.920;20.074;2023-01-25T07:14:54;48.15;;;28.25;;
58647;SDS011;45992;45.920;20.074;2023-01-25T07:17:20;45.58;;;24.33;;
58647;SDS011;45992;45.920;20.074;2023-01-25T07:19:47;53.70;;;29.90;;
58647;SDS011;45992;45.920;20.074;2023-01-25T07:22:13;51.00;;;24.20;;
58647;SDS011;45992;45.920;20.074;2023-01-25T07:24:39;40.55;;;21.38;;
58647;SDS011;45992;45.920;20.074;2023-01-25T07:27:05;38.85;;;21.35;;
58647;SDS011;45992;45.920;20.074;2023-01-25T07:29:31;43.95;;;23.60;;
58647;SDS011;45992;45.920;20.074;2023-01-25T07:31:58;43.53;;;22.85;;
58647;SDS011;45992;45.920;20.074;2023-01-25T07:34:24;56.03;;;28.90;;
58647;SDS011;45992;45.920;20.074;2023-01-25T07:36:50;52.72;;;27.20;;
58647;SDS011;45992;45.920;20.074;2023-01-25T07:39:16;44.03;;;23.85;;
58647;SDS011;45992;45.920;20.074;2023-01-25T07:41:43;34.08;;;18.60;;
58647;SDS011;45992;45.920;20.074;2023-01-25T07:44:09;36.23;;;20.60;;
58647;SDS011;45992;45.920;20.074;2023-01-25T07:46:35;29.07;;;16.77;;
58647;SDS011;45992;45.920;20.074;2023-01-25T07:49:01;19.97;;;12.63;;
58647;SDS011;45992;45.920;20.074;2023-01-25T07:51:27;35.13;;;19.53;;
58647;SDS011;45992;45.920;20.074;2023-01-25T07:56:22;24.85;;;15.40;;
58647;SDS011;45992;45.920;20.074;2023-01-25T07:58:48;27.75;;;16.25;;
58647;SDS011;45992;45.920;20.074;2023-01-25T08:01:17;19.88;;;10.68;;
58647;SDS011;45992;45.920;20.074;2023-01-25T08:03:44;17.25;;;9.20;;
58647;SDS011;45992;45.920;20.074;2023-01-25T08:08:38;23.77;;;12.30;;
58647;SDS011;45992;45.920;20.074;2023-01-25T08:11:09;22.38;;;13.07;;
58647;SDS011;45992;45.920;20.074;2023-01-25T08:13:37;29.58;;;16.00;;
58647;SDS011;45992;45.920;20.074;2023-01-25T08:16:03;22.75;;;12.43;;
58647;SDS011;45992;45.920;20.074;2023-01-25T08:18:30;20.40;;;11.25;;
58647;SDS011;45992;45.920;20.074;2023-01-25T08:20:56;27.88;;;15.45;;
58647;SDS011;45992;45.920;20.074;2023-01-25T08:23:23;18.35;;;10.55;;
58647;SDS011;45992;45.920;20.074;2023-01-25T08:25:49;17.95;;;9.98;;
58647;SDS011;45992;45.920;20.074;2023-01-25T08:28:16;18.80;;;9.73;;
58647;SDS011;45992;45.920;20.074;2023-01-25T08:30:42;22.48;;;12.07;;
58647;SDS011;45992;45.920;20.074;2023-01-25T08:33:08;37.20;;;21.67;;
58647;SDS011;45992;45.920;20.074;2023-01-25T08:35:34;34.25;;;19.80;;
58647;SDS011;45992;45.920;20.074;2023-01-25T08:38:01;24.65;;;14.15;;
58647;SDS011;45992;45.920;20.074;2023-01-25T08:40:28;20.17;;;11.00;;
58647;SDS011;45992;45.920;20.074;2023-01-25T08:42:55;15.48;;;9.25;;
58647;SDS011;45992;45.920;20.074;2023-01-25T08:45:21;16.27;;;8.15;;
58647;SDS011;45992;45.920;20.074;2023-01-25T08:47:47;15.10;;;7.85;;
58647;SDS011;45992;45.920;20.074;2023-01-25T08:50:14;19.23;;;10.75;;
58647;SDS011;45992;45.920;20.074;2023-01-25T08:52:40;18.42;;;9.27;;
58647;SDS011;45992;45.920;20.074;2023-01-25T08:55:06;17.45;;;8.90;;
58647;SDS011;45992;45.920;20.074;2023-01-25T08:57:32;15.40;;;7.55;;
58647;SDS011;45992;45.920;20.074;2023-01-25T08:59:59;13.70;;;7.18;;
58647;SDS011;45992;45.920;20.074;2023-01-25T09:02:25;23.20;;;9.67;;
58647;SDS011;45992;45.920;20.074;2023-01-25T09:04:51;15.48;;;8.18;;
58647;SDS011;45992;45.920;20.074;2023-01-25T09:07:17;27.35;;;16.75;;
58647;SDS011;45992;45.920;20.074;2023-01-25T09:09:43;18.77;;;10.10;;
58647;SDS011;45992;45.920;20.074;2023-01-25T09:12:09;16.30;;;10.10;;
58647;SDS011;45992;45.920;20.074;2023-01-25T09:14:36;19.57;;;11.20;;
58647;SDS011;45992;45.920;20.074;2023-01-25T09:17:04;21.85;;;11.52;;
58647;SDS011;45992;45.920;20.074;2023-01-25T09:19:30;14.40;;;8.52;;
58647;SDS011;45992;45.920;20.074;2023-01-25T09:21:56;16.70;;;10.48;;
58647;SDS011;45992;45.920;20.074;2023-01-25T09:24:22;21.85;;;12.38;;
58647;SDS011;45992;45.920;20.074;2023-01-25T09:26:49;20.10;;;10.77;;
58647;SDS011;45992;45.920;20.074;2023-01-25T09:29:15;22.75;;;14.35;;
58647;SDS011;45992;45.920;20.074;2023-01-25T09:31:41;27.52;;;14.95;;
58647;SDS011;45992;45.920;20.074;2023-01-25T09:34:08;22.88;;;12.35;;
58647;SDS011;45992;45.920;20.074;2023-01-25T09:36:35;22.15;;;11.13;;
58647;SDS011;45992;45.920;20.074;2023-01-25T09:39:01;20.65;;;10.95;;
58647;SDS011;45992;45.920;20.074;2023-01-25T09:46:46;15.60;;;8.50;;
58647;SDS011;45992;45.920;20.074;2023-01-25T09:52:19;16.38;;;9.55;;
58647;SDS011;45992;45.920;20.074;2023-01-25T09:54:41;21.33;;;10.95;;
58647;SDS011;45992;45.920;20.074;2023-01-25T09:57:18;103.63;;;38.72;;
58647;SDS011;45992;45.920;20.074;2023-01-25T09:59:46;47.88;;;24.20;;
58647;SDS011;45992;45.920;20.074;2023-01-25T10:04:48;14.38;;;7.72;;
58647;SDS011;45992;45.920;20.074;2023-01-25T10:07:27;13.57;;;7.40;;
58647;SDS011;45992;45.920;20.074;2023-01-25T10:09:56;12.02;;;6.75;;
58647;SDS011;45992;45.920;20.074;2023-01-25T10:12:25;43.45;;;28.15;;
58647;SDS011;45992;45.920;20.074;2023-01-25T10:14:56;19.42;;;10.77;;
58647;SDS011;45992;45.920;20.074;2023-01-25T10:17:26;25.25;;;17.75;;
58647;SDS011;45992;45.920;20.074;2023-01-25T10:22:32;22.35;;;15.50;;
58647;SDS011;45992;45.920;20.074;2023-01-25T10:25:05;15.60;;;9.15;;
58647;SDS011;45992;45.920;20.074;2023-01-25T10:30:20;28.38;;;20.13;;
58647;SDS011;45992;45.920;20.074;2023-01-25T10:32:48;22.55;;;15.50;;
58647;SDS011;45992;45.920;20.074;2023-01-25T10:35:18;38.65;;;25.88;;
58647;SDS011;45992;45.920;20.074;2023-01-25T10:37:44;29.20;;;22.17;;
58647;SDS011;45992;45.920;20.074;2023-01-25T10:42:54;12.48;;;7.38;;
58647;SDS011;45992;45.920;20.074;2023-01-25T10:45:22;15.55;;;8.88;;
58647;SDS011;45992;45.920;20.074;2023-01-25T10:47:53;14.50;;;7.50;;
58647;SDS011;45992;45.920;20.074;2023-01-25T10:53:23;15.77;;;8.57;;
58647;SDS011;45992;45.920;20.074;2023-01-25T10:58:39;24.13;;;15.95;;
58647;SDS011;45992;45.920;20.074;2023-01-25T11:01:10;18.38;;;9.85;;
58647;SDS011;45992;45.920;20.074;2023-01-25T11:03:40;18.77;;;8.75;;
58647;SDS011;45992;45.920;20.074;2023-01-25T11:06:09;22.50;;;12.05;;
58647;SDS011;45992;45.920;20.074;2023-01-25T11:08:36;19.27;;;12.48;;
58647;SDS011;45992;45.920;20.074;2023-01-25T11:13:39;36.40;;;16.63;;
58647;SDS011;45992;45.920;20.074;2023-01-25T11:18:35;23.30;;;12.82;;
58647;SDS011;45992;45.920;20.074;2023-01-25T11:23:28;31.20;;;15.05;;
58647;SDS011;45992;45.920;20.074;2023-01-25T11:26:09;36.38;;;17.98;;
58647;SDS011;45992;45.920;20.074;2023-01-25T11:28:36;45.03;;;21.00;;
58647;SDS011;45992;45.920;20.074;2023-01-25T11:31:02;21.65;;;12.05;;
58647;SDS011;45992;45.920;20.074;2023-01-25T11:33:28;18.52;;;11.95;;
58647;SDS011;45992;45.920;20.074;2023-01-25T11:36:12;15.48;;;8.85;;
58647;SDS011;45992;45.920;20.074;2023-01-25T11:38:43;15.30;;;8.75;;
58647;SDS011;45992;45.920;20.074;2023-01-25T11:49:03;21.33;;;11.65;;
58647;SDS011;45992;45.920;20.074;2023-01-25T12:07:04;16.50;;;11.20;;
58647;SDS011;45992;45.920;20.074;2023-01-25T12:09:43;11.32;;;6.80;;
58647;SDS011;45992;45.920;20.074;2023-01-25T12:15:22;15.48;;;8.50;;
58647;SDS011;45992;45.920;20.074;2023-01-25T12:20:09;20.17;;;12.82;;
58647;SDS011;45992;45.920;20.074;2023-01-25T12:22:44;18.40;;;10.70;;
58647;SDS011;45992;45.920;20.074;2023-01-25T12:25:18;16.10;;;9.73;;
58647;SDS011;45992;45.920;20.074;2023-01-25T12:30:15;15.75;;;9.32;;
58647;SDS011;45992;45.920;20.074;2023-01-25T12:32:47;13.13;;;8.63;;
58647;SDS011;45992;45.920;20.074;2023-01-25T12:35:21;12.73;;;7.90;;
58647;SDS011;45992;45.920;20.074;2023-01-25T12:37:48;12.98;;;7.35;;
58647;SDS011;45992;45.920;20.074;2023-01-25T12:40:17;11.70;;;6.82;;
58647;SDS011;45992;45.920;20.074;2023-01-25T12:42:52;23.58;;;12.98;;
58647;SDS011;45992;45.920;20.074;2023-01-25T12:45:23;43.67;;;24.20;;
58647;SDS011;45992;45.920;20.074;2023-01-25T12:47:52;19.92;;;11.68;;
58647;SDS011;45992;45.920;20.074;2023-01-25T12:50:30;15.95;;;9.55;;
58647;SDS011;45992;45.920;20.074;2023-01-25T12:55:26;23.35;;;13.95;;
58647;SDS011;45992;45.920;20.074;2023-01-25T13:00:28;20.73;;;11.32;;
58647;SDS011;45992;45.920;20.074;2023-01-25T13:10:25;19.10;;;15.13;;
58647;SDS011;45992;45.920;20.074;2023-01-25T13:12:55;13.95;;;7.78;;
58647;SDS011;45992;45.920;20.074;2023-01-25T13:15:33;14.30;;;8.60;;
58647;SDS011;45992;45.920;20.074;2023-01-25T13:17:59;26.48;;;17.35;;
58647;SDS011;45992;45.920;20.074;2023-01-25T13:23:03;18.05;;;10.27;;
58647;SDS011;45992;45.920;20.074;2023-01-25T13:25:30;19.63;;;13.10;;
58647;SDS011;45992;45.920;20.074;2023-01-25T13:30:51;24.88;;;13.45;;
58647;SDS011;45992;45.920;20.074;2023-01-25T13:33:32;22.27;;;11.95;;
58647;SDS011;45992;45.920;20.074;2023-01-25T13:38:47;17.48;;;11.27;;
58647;SDS011;45992;45.920;20.074;2023-01-25T13:41:13;17.85;;;9.95;;
58647;SDS011;45992;45.920;20.074;2023-01-25T13:43:42;25.58;;;14.30;;
58647;SDS011;45992;45.920;20.074;2023-01-25T13:46:09;22.88;;;13.05;;
58647;SDS011;45992;45.920;20.074;2023-01-25T13:48:41;30.75;;;17.40;;
58647;SDS011;45992;45.920;20.074;2023-01-25T13:51:10;26.33;;;13.90;;
58647;SDS011;45992;45.920;20.074;2023-01-25T13:53:38;21.92;;;12.70;;
58647;SDS011;45992;45.920;20.074;2023-01-25T13:56:04;32.97;;;17.90;;
58647;SDS011;45992;45.920;20.074;2023-01-25T13:58:32;26.13;;;15.07;;
58647;SDS011;45992;45.920;20.074;2023-01-25T14:03:39;39.40;;;24.58;;
58647;SDS011;45992;45.920;20.074;2023-01-25T14:06:06;45.95;;;28.95;;
58647;SDS011;45992;45.920;20.074;2023-01-25T14:08:39;30.90;;;19.30;;
58647;SDS011;45992;45.920;20.074;2023-01-25T14:11:07;42.80;;;28.52;;
58647;SDS011;45992;45.920;20.074;2023-01-25T14:13:33;56.15;;;38.88;;
58647;SDS011;45992;45.920;20.074;2023-01-25T14:16:00;39.60;;;22.27;;
58647;SDS011;45992;45.920;20.074;2023-01-25T14:18:31;27.05;;;15.63;;
58647;SDS011;45992;45.920;20.074;2023-01-25T14:21:17;23.58;;;13.88;;
58647;SDS011;45992;45.920;20.074;2023-01-25T14:23:44;41.38;;;22.88;;
58647;SDS011;45992;45.920;20.074;2023-01-25T14:26:35;61.30;;;37.38;;
58647;SDS011;45992;45.920;20.074;2023-01-25T14:29:02;71.90;;;46.08;;
58647;SDS011;45992;45.920;20.074;2023-01-25T14:31:35;55.78;;;38.83;;
58647;SDS011;45992;45.920;20.074;2023-01-25T14:34:02;152.57;;;94.43;;
58647;SDS011;45992;45.920;20.074;2023-01-25T14:36:30;98.75;;;57.28;;
58647;SDS011;45992;45.920;20.074;2023-01-25T14:38:58;123.38;;;71.47;;
58647;SDS011;45992;45.920;20.074;2023-01-25T14:43:51;90.10;;;55.50;;
58647;SDS011;45992;45.920;20.074;2023-01-25T14:46:28;55.38;;;35.38;;
58647;SDS011;45992;45.920;20.074;2023-01-25T14:51:49;31.30;;;18.90;;
58647;SDS011;45992;45.920;20.074;2023-01-25T14:54:17;38.42;;;27.88;;
58647;SDS011;45992;45.920;20.074;2023-01-25T14:56:48;47.78;;;31.52;;
58647;SDS011;45992;45.920;20.074;2023-01-25T15:01:48;154.00;;;74.90;;
58647;SDS011;45992;45.920;20.074;2023-01-25T15:04:15;100.72;;;54.65;;
58647;SDS011;45992;45.920;20.074;2023-01-25T15:06:45;165.68;;;104.68;;
58647;SDS011;45992;45.920;20.074;2023-01-25T15:12:00;94.85;;;66.57;;
58647;SDS011;45992;45.920;20.074;2023-01-25T15:14:27;49.58;;;31.45;;
58647;SDS011;45992;45.920;20.074;2023-01-25T15:16:53;27.95;;;19.13;;
58647;SDS011;45992;45.920;20.074;2023-01-25T15:21:46;149.73;;;104.90;;
58647;SDS011;45992;45.920;20.074;2023-01-25T15:24:13;76.72;;;52.78;;
58647;SDS011;45992;45.920;20.074;2023-01-25T15:26:39;25.83;;;16.33;;
58647;SDS011;45992;45.920;20.074;2023-01-25T15:31:38;29.10;;;21.48;;
58647;SDS011;45992;45.920;20.074;2023-01-25T15:34:04;27.42;;;18.40;;
58647;SDS011;45992;45.920;20.074;2023-01-25T15:36:31;37.85;;;23.17;;
58647;SDS011;45992;45.920;20.074;2023-01-25T15:41:24;62.60;;;42.72;;
58647;SDS011;45992;45.920;20.074;2023-01-25T15:43:50;44.38;;;29.35;;
58647;SDS011;45992;45.920;20.074;2023-01-25T15:46:24;39.92;;;22.85;;
58647;SDS011;45992;45.920;20.074;2023-01-25T15:48:51;52.88;;;34.00;;
58647;SDS011;45992;45.920;20.074;2023-01-25T15:51:18;35.67;;;24.25;;
58647;SDS011;45992;45.920;20.074;2023-01-25T15:53:44;51.58;;;32.85;;
58647;SDS011;45992;45.920;20.074;2023-01-25T15:56:21;42.03;;;28.98;;
58647;SDS011;45992;45.920;20.074;2023-01-25T15:58:51;35.55;;;23.73;;
58647;SDS011;45992;45.920;20.074;2023-01-25T16:01:18;50.97;;;33.08;;
58647;SDS011;45992;45.920;20.074;2023-01-25T16:03:45;56.08;;;31.73;;
58647;SDS011;45992;45.920;20.074;2023-01-25T16:08:56;55.80;;;28.45;;
58647;SDS011;45992;45.920;20.074;2023-01-25T16:11:23;43.72;;;25.48;;
58647;SDS011;45992;45.920;20.074;2023-01-25T16:13:49;49.50;;;27.15;;
58647;SDS011;45992;45.920;20.074;2023-01-25T16:16:20;44.63;;;30.73;;
58647;SDS011;45992;45.920;20.074;2023-01-25T16:18:47;53.15;;;33.05;;
58647;SDS011;45992;45.920;20.074;2023-01-25T16:21:13;58.08;;;38.70;;
58647;SDS011;45992;45.920;20.074;2023-01-25T16:23:40;105.00;;;60.95;;
58647;SDS011;45992;45.920;20.074;2023-01-25T16:28:32;78.68;;;49.33;;
58647;SDS011;45992;45.920;20.074;2023-01-25T16:30:59;80.32;;;49.22;;